createdAt,value
2022-08-22T00:00:16.201Z,23.51
2022-08-22T00:03:10.556Z,23.75
2022-08-22T00:03:15.453Z,23.76
2022-08-22T00:03:18.793Z,23.48
2022-08-22T00:06:04.150Z,23.46
2022-08-22T00:08:43.943Z,23.45
2022-08-22T00:11:22.192Z,23.45
2022-08-22T00:14:01.995Z,23.43
2022-08-22T00:16:42.990Z,23.39
2022-08-22T00:19:25.483Z,23.36
2022-08-22T00:22:04.558Z,23.33
2022-08-22T00:24:41.784Z,23.33
2022-08-22T00:27:16.099Z,23.29
2022-08-22T00:29:52.723Z,23.25
2022-08-22T00:32:30.149Z,23.23
2022-08-22T00:35:05.863Z,23.19
2022-08-22T00:37:55.488Z,23.18
2022-08-22T00:40:33.636Z,23.16
2022-08-22T00:43:21.055Z,23.15
2022-08-22T00:46:17.920Z,23.14
2022-08-22T00:49:17.586Z,23.14
2022-08-22T00:52:11.698Z,23.08
2022-08-22T00:55:05.088Z,23.04
2022-08-22T00:57:50.103Z,23.03
2022-08-22T01:00:22.863Z,23.04
2022-08-22T01:03:22.625Z,23.04
2022-08-22T01:06:09.546Z,23.04
2022-08-22T01:09:01.492Z,23.05
2022-08-22T01:11:51.915Z,23.06
2022-08-22T01:14:40.118Z,23.08
2022-08-22T01:17:40.690Z,23.09
2022-08-22T01:20:33.861Z,23.08
2022-08-22T01:23:33.076Z,23.07
2022-08-22T01:26:38.864Z,23.06
2022-08-22T01:29:42.430Z,23.05
2022-08-22T01:32:57.172Z,23.05
2022-08-22T01:35:51.301Z,23.03
2022-08-22T01:38:35.314Z,23.01
2022-08-22T01:41:29.600Z,22.99
2022-08-22T01:44:21.072Z,22.97
2022-08-22T01:47:01.236Z,22.91
2022-08-22T01:49:40.136Z,22.90
2022-08-22T01:52:18.237Z,22.88
2022-08-22T01:54:57.879Z,22.88
2022-08-22T01:57:29.115Z,22.87
2022-08-22T02:00:05.138Z,22.85
2022-08-22T02:03:01.926Z,22.85
2022-08-22T02:05:37.474Z,22.83
2022-08-22T02:08:24.078Z,22.77
2022-08-22T02:11:02.531Z,22.74
2022-08-22T02:13:46.155Z,22.68
2022-08-22T02:16:23.506Z,22.65
2022-08-22T02:19:23.888Z,22.62
2022-08-22T02:21:58.843Z,22.60
2022-08-22T02:24:46.731Z,22.58
2022-08-22T02:27:31.486Z,22.57
2022-08-22T02:30:09.026Z,22.55
2022-08-22T02:32:52.326Z,22.53
2022-08-22T02:35:30.530Z,22.53
2022-08-22T02:38:17.605Z,22.52
2022-08-22T02:41:02.836Z,22.51
2022-08-22T02:43:42.678Z,22.50
2022-08-22T02:46:25.037Z,22.48
2022-08-22T02:49:05.324Z,22.50
2022-08-22T02:51:47.313Z,22.49
2022-08-22T02:54:25.246Z,22.49
2022-08-22T02:57:04.913Z,22.48
2022-08-22T02:59:41.972Z,22.48
2022-08-22T03:02:32.174Z,22.46
2022-08-22T03:05:04.637Z,22.44
2022-08-22T03:07:46.059Z,22.42
2022-08-22T03:10:24.325Z,22.43
2022-08-22T03:13:14.349Z,22.45
2022-08-22T03:15:52.634Z,22.43
2022-08-22T03:18:28.563Z,22.43
2022-08-22T03:21:14.519Z,22.43
2022-08-22T03:23:49.338Z,22.42
2022-08-22T03:26:25.546Z,22.41
2022-08-22T03:29:04.304Z,22.38
2022-08-22T03:31:35.657Z,22.36
2022-08-22T03:34:24.732Z,22.34
2022-08-22T03:37:08.929Z,22.34
2022-08-22T03:39:54.502Z,22.35
2022-08-22T03:42:56.644Z,22.35
2022-08-22T03:46:00.987Z,22.38
2022-08-22T03:49:06.434Z,22.38
2022-08-22T03:51:49.208Z,22.35
2022-08-22T03:54:58.013Z,22.34
2022-08-22T03:57:49.792Z,22.32
2022-08-22T04:00:34.093Z,22.26
2022-08-22T04:03:45.267Z,22.24
2022-08-22T04:06:43.862Z,22.23
2022-08-22T04:09:45.816Z,22.26
2022-08-22T04:12:32.351Z,22.26
2022-08-22T04:15:29.832Z,22.28
2022-08-22T04:18:33.498Z,22.30
2022-08-22T04:21:24.081Z,22.29
2022-08-22T04:24:30.136Z,22.28
2022-08-22T04:27:05.089Z,22.26
2022-08-22T04:29:40.888Z,22.25
2022-08-22T04:32:15.296Z,22.24
2022-08-22T04:34:52.589Z,22.25
2022-08-22T04:37:27.941Z,22.26
2022-08-22T04:40:02.542Z,22.28
2022-08-22T04:42:39.094Z,22.30
2022-08-22T04:45:13.446Z,22.32
2022-08-22T04:47:54.031Z,22.36
2022-08-22T04:50:32.137Z,22.39
2022-08-22T04:53:16.653Z,22.43
2022-08-22T04:55:57.160Z,22.46
2022-08-22T04:58:42.445Z,22.49
2022-08-22T05:01:17.546Z,22.52
2022-08-22T05:03:53.689Z,22.55
2022-08-22T05:06:31.102Z,22.55
2022-08-22T05:09:07.292Z,22.58
2022-08-22T05:11:38.951Z,22.59
2022-08-22T05:14:16.449Z,22.58
2022-08-22T05:16:52.914Z,22.61
2022-08-22T05:19:32.113Z,22.61
2022-08-22T05:22:07.537Z,22.65
2022-08-22T05:24:42.447Z,22.69
2022-08-22T05:27:15.833Z,22.70
2022-08-22T05:29:49.597Z,22.75
2022-08-22T05:32:24.918Z,22.78
2022-08-22T05:35:01.506Z,22.83
2022-08-22T05:37:43.500Z,22.86
2022-08-22T05:40:21.085Z,22.95
2022-08-22T05:42:51.542Z,23.00
2022-08-22T05:45:21.950Z,23.05
2022-08-22T05:47:58.724Z,23.08
2022-08-22T05:50:38.873Z,23.14
2022-08-22T05:53:15.866Z,23.16
2022-08-22T05:55:58.037Z,23.20
2022-08-22T05:58:51.085Z,23.23
2022-08-22T06:01:27.777Z,23.28
2022-08-22T06:04:09.631Z,23.31
2022-08-22T06:06:45.252Z,23.37
2022-08-22T06:09:25.975Z,23.43
2022-08-22T06:12:18.227Z,23.49
2022-08-22T06:15:12.271Z,23.57
2022-08-22T06:17:47.458Z,23.65
2022-08-22T06:20:22.310Z,23.68
2022-08-22T06:22:55.714Z,23.72
2022-08-22T06:25:32.383Z,23.75
2022-08-22T06:28:07.024Z,23.80
2022-08-22T06:30:39.625Z,23.82
2022-08-22T06:33:15.882Z,23.86
2022-08-22T06:36:02.288Z,23.89
2022-08-22T06:38:35.004Z,23.98
2022-08-22T06:41:10.654Z,24.04
2022-08-22T06:43:44.745Z,24.12
2022-08-22T06:46:19.189Z,24.19
2022-08-22T06:48:51.567Z,24.25
2022-08-22T06:51:24.150Z,24.31
2022-08-22T06:53:59.539Z,24.37
2022-08-22T06:56:38.854Z,24.40
2022-08-22T06:59:14.350Z,24.44
2022-08-22T07:01:51.003Z,24.47
2022-08-22T07:04:26.800Z,24.48
2022-08-22T07:06:59.030Z,24.50
2022-08-22T07:09:30.986Z,24.51
2022-08-22T07:12:06.059Z,24.54
2022-08-22T07:14:45.039Z,24.54
2022-08-22T07:17:21.690Z,24.56
2022-08-22T07:20:00.039Z,24.58
2022-08-22T07:22:33.079Z,24.61
2022-08-22T07:25:11.150Z,24.65
2022-08-22T07:28:01.079Z,24.71
2022-08-22T07:30:46.784Z,24.77
2022-08-22T07:33:31.969Z,24.84
2022-08-22T07:36:05.888Z,24.89
2022-08-22T07:38:43.130Z,24.90
2022-08-22T07:41:20.080Z,24.92
2022-08-22T07:43:56.178Z,24.95
2022-08-22T07:46:33.881Z,24.98
2022-08-22T07:49:15.707Z,25.02
2022-08-22T07:51:49.772Z,25.03
2022-08-22T07:54:27.789Z,25.05
2022-08-22T07:57:04.418Z,25.09
2022-08-22T07:59:40.162Z,25.17
2022-08-22T08:02:14.939Z,25.25
2022-08-22T08:04:46.834Z,25.32
2022-08-22T08:07:19.127Z,25.35
2022-08-22T08:09:56.199Z,25.39
2022-08-22T08:12:35.709Z,25.43
2022-08-22T08:15:13.332Z,25.47
2022-08-22T08:17:43.825Z,25.51
2022-08-22T08:20:17.867Z,25.50
2022-08-22T08:22:49.095Z,25.52
2022-08-22T08:25:22.407Z,25.53
2022-08-22T08:28:06.182Z,25.55
2022-08-22T08:30:46.791Z,25.57
2022-08-22T08:33:24.741Z,25.58
2022-08-22T08:36:02.305Z,25.59
2022-08-22T08:38:39.193Z,25.61
2022-08-22T08:41:33.670Z,25.64
2022-08-22T08:44:17.062Z,25.65
2022-08-22T08:47:25.508Z,25.64
2022-08-22T08:50:07.050Z,25.68
2022-08-22T08:53:07.578Z,25.72
2022-08-22T08:55:48.532Z,25.80
2022-08-22T08:58:43.820Z,25.81
2022-08-22T09:01:35.077Z,25.83
2022-08-22T09:04:29.133Z,25.86
2022-08-22T09:07:24.296Z,25.90
2022-08-22T09:10:14.537Z,25.92
2022-08-22T09:13:21.078Z,25.94
2022-08-22T09:16:10.262Z,25.97
2022-08-22T09:18:55.756Z,25.99
2022-08-22T09:21:53.906Z,26.08
2022-08-22T09:24:52.489Z,26.11
2022-08-22T09:27:37.218Z,26.18
2022-08-22T09:30:12.925Z,26.28
2022-08-22T09:32:50.448Z,26.33
2022-08-22T09:35:29.768Z,26.43
2022-08-22T09:38:12.168Z,26.53
2022-08-22T09:40:52.552Z,26.61
2022-08-22T09:43:27.154Z,26.68
2022-08-22T09:46:09.563Z,26.72
2022-08-22T09:49:05.567Z,26.79
2022-08-22T09:51:43.242Z,26.86
2022-08-22T09:54:31.366Z,26.94
2022-08-22T09:57:26.772Z,27.08
2022-08-22T10:00:17.685Z,27.22
2022-08-22T10:03:03.955Z,27.40
2022-08-22T10:05:43.984Z,27.48
2022-08-22T10:08:26.129Z,27.60
2022-08-22T10:11:21.736Z,27.70
2022-08-22T10:14:04.090Z,27.75
2022-08-22T10:16:59.872Z,27.77
2022-08-22T10:19:35.272Z,27.83
2022-08-22T10:22:29.863Z,27.85
2022-08-22T10:25:20.843Z,27.90
2022-08-22T10:27:59.680Z,27.92
2022-08-22T10:30:39.492Z,28.09
2022-08-22T10:33:17.341Z,28.30
2022-08-22T10:36:01.096Z,28.57
2022-08-22T10:38:46.254Z,28.71
2022-08-22T10:41:28.612Z,28.72
2022-08-22T10:44:05.471Z,28.78
2022-08-22T10:46:47.025Z,28.86
2022-08-22T10:49:28.365Z,28.89
2022-08-22T10:52:15.289Z,28.92
2022-08-22T10:54:50.688Z,28.92
2022-08-22T10:57:32.380Z,29.08
2022-08-22T11:00:10.505Z,29.32
2022-08-22T11:02:55.189Z,29.60
2022-08-22T11:05:47.768Z,29.74
2022-08-22T11:09:02.038Z,29.72
2022-08-22T11:11:42.437Z,29.70
2022-08-22T11:14:35.618Z,29.56
2022-08-22T11:17:29.911Z,29.54
2022-08-22T11:20:22.343Z,29.49
2022-08-22T11:23:12.647Z,29.40
2022-08-22T11:25:53.871Z,29.21
2022-08-22T11:28:36.081Z,29.04
2022-08-22T11:31:14.072Z,28.92
2022-08-22T11:33:52.547Z,28.78
2022-08-22T11:36:35.294Z,28.64
2022-08-22T11:39:19.488Z,28.58
2022-08-22T11:42:04.157Z,28.63
2022-08-22T11:44:50.668Z,28.69
2022-08-22T11:47:27.199Z,28.76
2022-08-22T11:50:02.733Z,28.79
2022-08-22T11:52:54.917Z,28.79
2022-08-22T11:55:34.393Z,28.76
2022-08-22T11:58:28.799Z,28.75
2022-08-22T12:01:04.671Z,28.78
2022-08-22T12:03:45.595Z,28.80
2022-08-22T12:06:47.275Z,28.91
2022-08-22T12:09:31.981Z,28.93
2022-08-22T12:12:18.191Z,28.95
2022-08-22T12:15:04.613Z,28.95
2022-08-22T12:18:13.510Z,29.03
2022-08-22T12:21:09.172Z,29.10
2022-08-22T12:24:06.097Z,29.13
2022-08-22T12:26:52.987Z,29.10
2022-08-22T12:29:39.996Z,29.04
2022-08-22T12:32:50.690Z,29.00
2022-08-22T12:35:32.035Z,28.95
2022-08-22T12:38:28.368Z,28.87
2022-08-22T12:41:28.506Z,28.77
2022-08-22T12:44:26.085Z,28.68
2022-08-22T12:47:17.211Z,28.63
2022-08-22T12:50:07.654Z,28.58
2022-08-22T12:53:00.439Z,28.54
2022-08-22T12:55:45.675Z,28.48
2022-08-22T12:58:31.703Z,28.48
2022-08-22T13:01:09.757Z,28.54
2022-08-22T13:03:46.402Z,28.57
2022-08-22T13:06:50.005Z,28.62
2022-08-22T13:09:28.465Z,28.63
2022-08-22T13:12:04.582Z,28.54
2022-08-22T13:14:36.967Z,28.46
2022-08-22T13:17:24.034Z,28.43
2022-08-22T13:20:06.421Z,28.43
2022-08-22T13:22:41.567Z,28.44
2022-08-22T13:25:25.876Z,28.39
2022-08-22T13:27:59.574Z,28.33
2022-08-22T13:30:34.126Z,28.30
2022-08-22T13:33:13.252Z,28.28
2022-08-22T13:35:51.856Z,28.28
2022-08-22T13:38:26.650Z,28.25
2022-08-22T13:40:58.831Z,28.19
2022-08-22T13:43:32.563Z,28.13
2022-08-22T13:46:04.889Z,28.07
2022-08-22T13:48:52.163Z,28.06
2022-08-22T13:51:29.295Z,28.06
2022-08-22T13:54:10.958Z,28.02
2022-08-22T13:56:47.811Z,28.01
2022-08-22T13:59:49.484Z,28.00
2022-08-22T14:02:35.418Z,28.00
2022-08-22T14:05:12.521Z,28.02
2022-08-22T14:07:53.564Z,28.00
2022-08-22T14:10:30.031Z,27.99
2022-08-22T14:13:38.090Z,28.01
2022-08-22T14:16:12.546Z,28.01
2022-08-22T14:18:53.801Z,27.94
2022-08-22T14:21:40.834Z,27.92
2022-08-22T14:24:20.193Z,27.95
2022-08-22T14:27:00.112Z,27.98
2022-08-22T14:29:50.383Z,28.02
2022-08-22T14:32:42.132Z,28.01
2022-08-22T14:35:23.561Z,27.95
2022-08-22T14:38:17.388Z,27.90
2022-08-22T14:40:49.918Z,27.90
2022-08-22T14:43:41.278Z,27.85
2022-08-22T14:46:16.118Z,27.82
2022-08-22T14:48:51.426Z,27.79
2022-08-22T14:51:25.580Z,27.78
2022-08-22T14:54:13.859Z,27.77
2022-08-22T14:56:45.738Z,27.78
2022-08-22T14:59:26.656Z,27.79
2022-08-22T15:02:03.253Z,27.79
2022-08-22T15:04:38.300Z,27.77
2022-08-22T15:07:09.471Z,27.73
2022-08-22T15:09:45.998Z,27.67
2022-08-22T15:12:28.574Z,27.62
2022-08-22T15:15:02.559Z,27.60
2022-08-22T15:17:44.453Z,27.58
2022-08-22T15:20:36.379Z,27.52
2022-08-22T15:23:23.056Z,27.51
2022-08-22T15:26:06.136Z,27.47
2022-08-22T15:28:52.464Z,27.45
2022-08-22T15:31:24.354Z,27.48
2022-08-22T15:33:54.971Z,27.50
2022-08-22T15:36:28.346Z,27.45
2022-08-22T15:39:19.714Z,27.44
2022-08-22T15:41:53.353Z,27.44
2022-08-22T15:44:32.929Z,27.41
2022-08-22T15:47:24.172Z,27.39
2022-08-22T15:50:00.434Z,27.38
2022-08-22T15:52:33.160Z,27.32
2022-08-22T15:55:23.787Z,27.26
2022-08-22T15:58:04.706Z,27.28
2022-08-22T16:00:43.796Z,27.30
2022-08-22T16:03:26.692Z,27.28
2022-08-22T16:05:59.636Z,27.27
2022-08-22T16:08:34.205Z,27.26
2022-08-22T16:11:33.097Z,27.27
2022-08-22T16:14:26.234Z,27.26
2022-08-22T16:17:04.102Z,27.29
2022-08-22T16:19:35.577Z,27.27
2022-08-22T16:22:15.916Z,27.24
2022-08-22T16:25:10.388Z,27.23
2022-08-22T16:27:55.721Z,27.21
2022-08-22T16:30:42.016Z,27.18
2022-08-22T16:33:18.395Z,27.20
2022-08-22T16:36:25.155Z,27.19
2022-08-22T16:38:58.432Z,27.20
2022-08-22T16:41:38.437Z,27.17
2022-08-22T16:44:35.235Z,27.08
2022-08-22T16:47:20.045Z,27.03
2022-08-22T16:50:05.548Z,27.02
2022-08-22T16:52:57.667Z,26.98
2022-08-22T16:56:03.542Z,26.95
2022-08-22T16:59:03.307Z,26.93
2022-08-22T17:01:55.488Z,26.93
2022-08-22T17:04:39.538Z,26.87
2022-08-22T17:07:21.731Z,26.83
2022-08-22T17:10:12.549Z,26.78
2022-08-22T17:12:53.712Z,26.73
2022-08-22T17:15:34.330Z,26.67
2022-08-22T17:18:29.296Z,26.62
2022-08-22T17:21:12.145Z,26.57
2022-08-22T17:23:49.811Z,26.54
2022-08-22T17:26:31.733Z,26.51
2022-08-22T17:29:15.519Z,26.47
2022-08-22T17:31:52.927Z,26.45
2022-08-22T17:34:35.335Z,26.38
2022-08-22T17:37:16.003Z,26.38
2022-08-22T17:39:56.885Z,26.36
2022-08-22T17:42:45.411Z,26.35
2022-08-22T17:45:27.866Z,26.32
2022-08-22T17:48:05.729Z,26.25
2022-08-22T17:50:42.959Z,26.25
2022-08-22T17:53:27.913Z,26.26
2022-08-22T17:56:04.816Z,26.26
2022-08-22T17:58:44.108Z,26.25
2022-08-22T18:01:19.019Z,26.22
2022-08-22T18:03:56.307Z,26.20
2022-08-22T18:06:32.745Z,26.19
2022-08-22T18:09:14.961Z,26.18
2022-08-22T18:11:50.229Z,26.20
2022-08-22T18:14:30.362Z,26.17
2022-08-22T18:17:02.263Z,26.17
2022-08-22T18:19:48.036Z,26.14
2022-08-22T18:22:24.852Z,26.11
2022-08-22T18:25:04.285Z,26.10
2022-08-22T18:27:39.837Z,26.08
2022-08-22T18:30:21.112Z,26.05
2022-08-22T18:32:58.018Z,26.03
2022-08-22T18:35:34.185Z,26.02
2022-08-22T18:38:19.937Z,26.02
2022-08-22T18:40:57.572Z,26.04
2022-08-22T18:43:37.829Z,26.03
2022-08-22T18:46:31.722Z,26.01
2022-08-22T18:49:19.331Z,25.96
2022-08-22T18:52:16.193Z,25.96
2022-08-22T18:55:06.728Z,25.93
2022-08-22T18:57:56.656Z,25.92
2022-08-22T19:00:45.481Z,25.91
2022-08-22T19:03:30.719Z,25.91
2022-08-22T19:06:39.680Z,25.92
2022-08-22T19:09:35.457Z,25.94
2022-08-22T19:12:17.171Z,25.95
2022-08-22T19:15:28.505Z,25.95
2022-08-22T19:18:34.488Z,25.94
2022-08-22T19:21:34.551Z,25.92
2022-08-22T19:24:10.420Z,25.91
2022-08-22T19:26:47.904Z,25.90
2022-08-22T19:29:47.858Z,25.89
2022-08-22T19:32:47.621Z,25.87
2022-08-22T19:35:24.625Z,25.88
2022-08-22T19:37:56.053Z,25.86
2022-08-22T19:40:53.525Z,25.84
2022-08-22T19:43:40.984Z,25.87
2022-08-22T19:46:14.961Z,25.87
2022-08-22T19:48:52.794Z,25.85
2022-08-22T19:51:32.261Z,25.83
2022-08-22T19:54:20.463Z,25.83
2022-08-22T19:57:03.716Z,25.81
2022-08-22T19:59:51.101Z,25.81
2022-08-22T20:02:35.296Z,25.81
2022-08-22T20:05:15.360Z,25.79
2022-08-22T20:08:03.110Z,25.76
2022-08-22T20:10:42.980Z,25.77
2022-08-22T20:13:22.821Z,25.75
2022-08-22T20:16:16.445Z,25.72
2022-08-22T20:19:19.591Z,25.72
2022-08-22T20:21:58.095Z,25.70
2022-08-22T20:24:39.123Z,25.70
2022-08-22T20:27:17.146Z,25.68
2022-08-22T20:29:53.012Z,25.66
2022-08-22T20:32:26.109Z,25.65
2022-08-22T20:35:02.989Z,25.65
2022-08-22T20:38:05.277Z,25.63
2022-08-22T20:40:56.597Z,25.59
2022-08-22T20:43:35.172Z,25.60
2022-08-22T20:46:19.020Z,25.58
2022-08-22T20:48:53.039Z,25.55
2022-08-22T20:51:25.972Z,25.55
2022-08-22T20:53:57.866Z,25.56
2022-08-22T20:56:53.498Z,25.54
2022-08-22T20:59:35.756Z,25.54
2022-08-22T21:02:17.093Z,25.52
2022-08-22T21:04:52.743Z,25.52
2022-08-22T21:07:25.804Z,25.50
2022-08-22T21:10:10.336Z,25.48
2022-08-22T21:12:42.742Z,25.48
2022-08-22T21:15:13.106Z,25.45
2022-08-22T21:17:42.946Z,25.46
2022-08-22T21:20:21.471Z,25.44
2022-08-22T21:22:52.130Z,25.45
2022-08-22T21:28:39.559Z,25.42
2022-08-22T21:31:15.938Z,25.40
2022-08-22T21:33:48.416Z,25.39
2022-08-22T21:36:20.940Z,25.38
2022-08-22T21:38:53.901Z,25.37
2022-08-22T21:41:28.817Z,25.33
2022-08-22T21:44:20.429Z,25.32
2022-08-22T21:46:50.380Z,25.33
2022-08-22T21:49:25.504Z,25.30
2022-08-22T21:51:56.408Z,25.30
2022-08-22T21:54:43.175Z,25.29
2022-08-22T21:57:39.090Z,25.27
2022-08-22T22:00:39.420Z,25.29
2022-08-22T22:03:09.534Z,25.30
2022-08-22T22:05:40.500Z,25.25
2022-08-22T22:08:12.449Z,25.23
2022-08-22T22:10:43.572Z,25.23
2022-08-22T22:13:13.872Z,25.22
2022-08-22T22:15:48.324Z,25.21
2022-08-22T22:18:20.970Z,25.22
2022-08-22T22:20:52.068Z,25.22
2022-08-22T22:23:22.472Z,25.22
2022-08-22T22:25:53.049Z,25.22
2022-08-22T22:28:26.780Z,25.20
2022-08-22T22:30:59.663Z,25.19
2022-08-22T22:33:33.836Z,25.17
2022-08-22T22:36:08.583Z,25.17
2022-08-22T22:38:39.662Z,25.15
2022-08-22T22:41:09.598Z,25.13
2022-08-22T22:43:39.509Z,25.13
2022-08-22T22:46:12.064Z,25.10
2022-08-22T22:48:41.900Z,25.10
2022-08-22T22:51:13.675Z,25.09
2022-08-22T22:53:44.934Z,25.08
2022-08-22T22:56:18.227Z,25.07
2022-08-22T22:59:01.166Z,25.06
2022-08-22T23:02:03.751Z,25.06
2022-08-22T23:04:35.084Z,25.05
2022-08-22T23:07:05.610Z,25.02
2022-08-22T23:09:38.427Z,25.00
2022-08-22T23:12:15.475Z,25.00
2022-08-22T23:14:45.458Z,24.99
2022-08-22T23:17:19.126Z,24.98
2022-08-22T23:19:49.051Z,24.98
2022-08-22T23:22:18.930Z,24.97
2022-08-22T23:24:48.810Z,24.97
2022-08-22T23:27:19.084Z,24.96
2022-08-22T23:29:48.970Z,24.95
2022-08-22T23:32:21.604Z,24.91
2022-08-22T23:34:51.521Z,24.89
2022-08-22T23:37:24.728Z,24.89
2022-08-22T23:39:54.599Z,24.89
2022-08-22T23:42:24.558Z,24.88
2022-08-22T23:44:54.450Z,24.86
2022-08-22T23:47:26.920Z,24.83
2022-08-22T23:49:56.768Z,24.83
2022-08-22T23:52:26.714Z,24.81
2022-08-22T23:54:57.153Z,24.82
2022-08-22T23:57:27.701Z,24.82
2022-08-22T23:59:59.737Z,24.80
